Terminal Aerodrome Forecast
Issued by NWS Cleveland, OH

Home | Current Version | Previous Version | Graphics & Text | Print | Product List | Glossary On
Versions: 1 2 3 4 5 6 7 8 9 10 11 12 13 14 15 16 17
000
FTUS41 KCLE 082300
TAFMFD
TAF
KMFD 082338Z 0900/0924 27014G22KT P6SM SCT045 BKN200
     FM090200 26010KT P6SM BKN200
     FM090900 25005KT 5SM BR VCSH BKN030
     FM091600 28010KT P6SM BKN040=

USA.gov is the U.S. government's official web portal to all federal, state and local government web resources and services.